sensor_id;sensor_type;location;lat;lon;timestamp;pressure;altitude;pressure_sealevel;temperature;humidity
65546;BME280;52177;55.968;37.498;2022-11-30T00:00:03;102322.31;;;-10.82;73.84
65546;BME280;52177;55.968;37.498;2022-11-30T00:00:33;102321.47;;;-10.81;73.79
65546;BME280;52177;55.968;37.498;2022-11-30T00:01:08;102322.34;;;-10.81;73.92
65546;BME280;52177;55.968;37.498;2022-11-30T00:01:39;102322.34;;;-10.81;73.94
65546;BME280;52177;55.968;37.498;2022-11-30T00:02:09;102322.34;;;-10.81;73.81
65546;BME280;52177;55.968;37.498;2022-11-30T00:02:39;102319.75;;;-10.81;73.93
65546;BME280;52177;55.968;37.498;2022-11-30T00:03:09;102319.75;;;-10.81;73.78
65546;BME280;52177;55.968;37.498;2022-11-30T00:03:40;102318.91;;;-10.81;73.83
65546;BME280;52177;55.968;37.498;2022-11-30T00:04:10;102319.72;;;-10.82;73.83
65546;BME280;52177;55.968;37.498;2022-11-30T00:04:40;102317.19;;;-10.81;73.78
65546;BME280;52177;55.968;37.498;2022-11-30T00:05:11;102318.03;;;-10.80;73.97
65546;BME280;52177;55.968;37.498;2022-11-30T00:05:41;102309.44;;;-10.81;73.93
65546;BME280;52177;55.968;37.498;2022-11-30T00:06:13;102318.91;;;-10.80;73.74
65546;BME280;52177;55.968;37.498;2022-11-30T00:06:43;102313.75;;;-10.80;73.67
65546;BME280;52177;55.968;37.498;2022-11-30T00:07:14;102316.31;;;-10.81;73.69
65546;BME280;52177;55.968;37.498;2022-11-30T00:07:44;102314.56;;;-10.82;73.67
65546;BME280;52177;55.968;37.498;2022-11-30T00:08:14;102316.28;;;-10.83;73.84
65546;BME280;52177;55.968;37.498;2022-11-30T00:08:44;102319.75;;;-10.81;73.92
65546;BME280;52177;55.968;37.498;2022-11-30T00:09:15;102316.31;;;-10.80;73.84
65546;BME280;52177;55.968;37.498;2022-11-30T00:09:45;102320.63;;;-10.80;73.86
65546;BME280;52177;55.968;37.498;2022-11-30T00:10:15;102319.75;;;-10.79;73.88
65546;BME280;52177;55.968;37.498;2022-11-30T00:10:46;102318.91;;;-10.80;73.83
65546;BME280;52177;55.968;37.498;2022-11-30T00:11:17;102318.91;;;-10.80;73.93
65546;BME280;52177;55.968;37.498;2022-11-30T00:11:49;102317.19;;;-10.79;73.91
65546;BME280;52177;55.968;37.498;2022-11-30T00:12:20;102318.03;;;-10.80;73.92
65546;BME280;52177;55.968;37.498;2022-11-30T00:12:50;102317.19;;;-10.81;73.95
65546;BME280;52177;55.968;37.498;2022-11-30T00:13:20;102316.31;;;-10.80;73.86
65546;BME280;52177;55.968;37.498;2022-11-30T00:13:50;102312.88;;;-10.80;73.94
65546;BME280;52177;55.968;37.498;2022-11-30T00:14:21;102317.19;;;-10.79;74.03
65546;BME280;52177;55.968;37.498;2022-11-30T00:14:51;102306.03;;;-10.80;74.08
65546;BME280;52177;55.968;37.498;2022-11-30T00:15:21;102312.03;;;-10.79;74.07
65546;BME280;52177;55.968;37.498;2022-11-30T00:15:51;102312.94;;;-10.79;74.11
65546;BME280;52177;55.968;37.498;2022-11-30T00:16:22;102311.16;;;-10.80;74.17
65546;BME280;52177;55.968;37.498;2022-11-30T00:16:52;102317.19;;;-10.79;74.15
65546;BME280;52177;55.968;37.498;2022-11-30T00:17:22;102312.94;;;-10.79;73.93
65546;BME280;52177;55.968;37.498;2022-11-30T00:17:55;102316.31;;;-10.80;73.90
65546;BME280;52177;55.968;37.498;2022-11-30T00:18:26;102318.91;;;-10.80;73.88
65546;BME280;52177;55.968;37.498;2022-11-30T00:18:56;102312.03;;;-10.81;73.83
65546;BME280;52177;55.968;37.498;2022-11-30T00:19:27;102318.91;;;-10.81;73.95
65546;BME280;52177;55.968;37.498;2022-11-30T00:19:57;102319.75;;;-10.81;74.04
65546;BME280;52177;55.968;37.498;2022-11-30T00:20:27;102313.75;;;-10.81;74.05
65546;BME280;52177;55.968;37.498;2022-11-30T00:20:59;102320.63;;;-10.80;74.09
65546;BME280;52177;55.968;37.498;2022-11-30T00:21:30;102320.63;;;-10.80;74.19
65546;BME280;52177;55.968;37.498;2022-11-30T00:22:00;102321.47;;;-10.80;74.06
65546;BME280;52177;55.968;37.498;2022-11-30T00:22:30;102318.03;;;-10.80;74.08
65546;BME280;52177;55.968;37.498;2022-11-30T00:23:00;102319.75;;;-10.81;74.21
65546;BME280;52177;55.968;37.498;2022-11-30T00:23:34;102324.91;;;-10.79;74.32
65546;BME280;52177;55.968;37.498;2022-11-30T00:24:05;102325.81;;;-10.79;74.19
65546;BME280;52177;55.968;37.498;2022-11-30T00:24:35;102320.66;;;-10.79;74.30
65546;BME280;52177;55.968;37.498;2022-11-30T00:25:06;102327.50;;;-10.79;74.24
65546;BME280;52177;55.968;37.498;2022-11-30T00:25:36;102324.97;;;-10.76;74.26
65546;BME280;52177;55.968;37.498;2022-11-30T00:26:07;102323.22;;;-10.77;74.25
65546;BME280;52177;55.968;37.498;2022-11-30T00:26:38;102325.84;;;-10.76;74.33
65546;BME280;52177;55.968;37.498;2022-11-30T00:27:08;102320.72;;;-10.74;74.45
65546;BME280;52177;55.968;37.498;2022-11-30T00:27:39;102315.56;;;-10.73;74.53
65546;BME280;52177;55.968;37.498;2022-11-30T00:28:09;102321.63;;;-10.71;74.43
65546;BME280;52177;55.968;37.498;2022-11-30T00:28:40;102325.91;;;-10.71;74.33
65546;BME280;52177;55.968;37.498;2022-11-30T00:29:10;102328.50;;;-10.71;74.17
65546;BME280;52177;55.968;37.498;2022-11-30T00:29:40;102323.38;;;-10.70;74.14
65546;BME280;52177;55.968;37.498;2022-11-30T00:30:11;102323.38;;;-10.70;74.32
65546;BME280;52177;55.968;37.498;2022-11-30T00:30:41;102321.66;;;-10.69;74.14
65546;BME280;52177;55.968;37.498;2022-11-30T00:31:14;102330.25;;;-10.69;74.13
65546;BME280;52177;55.968;37.498;2022-11-30T00:31:44;102327.69;;;-10.67;74.16
65546;BME280;52177;55.968;37.498;2022-11-30T00:32:15;102324.22;;;-10.68;74.22
65546;BME280;52177;55.968;37.498;2022-11-30T00:32:45;102320.81;;;-10.67;74.33
65546;BME280;52177;55.968;37.498;2022-11-30T00:33:15;102319.97;;;-10.66;74.29
65546;BME280;52177;55.968;37.498;2022-11-30T00:33:45;102319.16;;;-10.65;74.42
65546;BME280;52177;55.968;37.498;2022-11-30T00:34:16;102318.28;;;-10.64;74.48
65546;BME280;52177;55.968;37.498;2022-11-30T00:34:46;102323.47;;;-10.62;74.62
65546;BME280;52177;55.968;37.498;2022-11-30T00:35:16;102322.63;;;-10.61;74.66
65546;BME280;52177;55.968;37.498;2022-11-30T00:35:54;102320.06;;;-10.59;74.57
65546;BME280;52177;55.968;37.498;2022-11-30T00:36:24;102326.09;;;-10.59;74.57
65546;BME280;52177;55.968;37.498;2022-11-30T00:36:54;102325.25;;;-10.58;74.50
65546;BME280;52177;55.968;37.498;2022-11-30T00:37:25;102315.81;;;-10.57;74.75
65546;BME280;52177;55.968;37.498;2022-11-30T00:37:55;102317.53;;;-10.56;74.72
65546;BME280;52177;55.968;37.498;2022-11-30T00:38:25;102314.13;;;-10.55;74.61
65546;BME280;52177;55.968;37.498;2022-11-30T00:38:55;102317.53;;;-10.56;74.63
65546;BME280;52177;55.968;37.498;2022-11-30T00:39:26;102316.69;;;-10.54;74.68
65546;BME280;52177;55.968;37.498;2022-11-30T00:39:56;102319.28;;;-10.54;74.65
65546;BME280;52177;55.968;37.498;2022-11-30T00:40:26;102318.44;;;-10.53;74.64
65546;BME280;52177;55.968;37.498;2022-11-30T00:40:56;102318.44;;;-10.51;74.52
65546;BME280;52177;55.968;37.498;2022-11-30T00:41:27;102322.75;;;-10.52;74.48
65546;BME280;52177;55.968;37.498;2022-11-30T00:41:57;102310.72;;;-10.51;74.48
65546;BME280;52177;55.968;37.498;2022-11-30T00:42:27;102312.47;;;-10.50;74.63
65546;BME280;52177;55.968;37.498;2022-11-30T00:42:57;102312.47;;;-10.50;74.61
65546;BME280;52177;55.968;37.498;2022-11-30T00:43:27;102319.34;;;-10.51;74.43
65546;BME280;52177;55.968;37.498;2022-11-30T00:43:58;102319.34;;;-10.49;74.40
65546;BME280;52177;55.968;37.498;2022-11-30T00:44:28;102315.06;;;-10.50;74.45
65546;BME280;52177;55.968;37.498;2022-11-30T00:44:58;102316.75;;;-10.49;74.46
65546;BME280;52177;55.968;37.498;2022-11-30T00:45:28;102321.09;;;-10.48;74.28
65546;BME280;52177;55.968;37.498;2022-11-30T00:45:59;102317.66;;;-10.49;74.39
65546;BME280;52177;55.968;37.498;2022-11-30T00:46:29;102312.50;;;-10.49;74.49
65546;BME280;52177;55.968;37.498;2022-11-30T00:46:59;102313.38;;;-10.48;74.47
65546;BME280;52177;55.968;37.498;2022-11-30T00:47:29;102315.91;;;-10.50;74.36
65546;BME280;52177;55.968;37.498;2022-11-30T00:48:00;102322.78;;;-10.50;74.28
65546;BME280;52177;55.968;37.498;2022-11-30T00:48:30;102316.75;;;-10.51;74.42
65546;BME280;52177;55.968;37.498;2022-11-30T00:49:00;102315.06;;;-10.50;74.42
65546;BME280;52177;55.968;37.498;2022-11-30T00:49:30;102313.28;;;-10.51;74.44
65546;BME280;52177;55.968;37.498;2022-11-30T00:50:03;102311.59;;;-10.51;74.34
65546;BME280;52177;55.968;37.498;2022-11-30T00:50:33;102317.63;;;-10.50;74.51
65546;BME280;52177;55.968;37.498;2022-11-30T00:51:04;102312.47;;;-10.50;74.53
65546;BME280;52177;55.968;37.498;2022-11-30T00:51:34;102314.19;;;-10.51;74.36
65546;BME280;52177;55.968;37.498;2022-11-30T00:52:05;102315.00;;;-10.52;74.39
65546;BME280;52177;55.968;37.498;2022-11-30T00:52:35;102312.44;;;-10.53;74.50
65546;BME280;52177;55.968;37.498;2022-11-30T00:53:05;102308.97;;;-10.54;74.38
65546;BME280;52177;55.968;37.498;2022-11-30T00:53:36;102311.53;;;-10.55;74.42
65546;BME280;52177;55.968;37.498;2022-11-30T00:54:06;102317.56;;;-10.55;74.39
65546;BME280;52177;55.968;37.498;2022-11-30T00:54:36;102315.84;;;-10.54;74.46
65546;BME280;52177;55.968;37.498;2022-11-30T00:55:07;102319.25;;;-10.57;74.37
65546;BME280;52177;55.968;37.498;2022-11-30T00:55:37;102314.94;;;-10.58;74.20
65546;BME280;52177;55.968;37.498;2022-11-30T00:56:07;102311.47;;;-10.58;74.12
65546;BME280;52177;55.968;37.498;2022-11-30T00:56:38;102314.06;;;-10.60;74.06
65546;BME280;52177;55.968;37.498;2022-11-30T00:57:08;102312.31;;;-10.61;74.07
65546;BME280;52177;55.968;37.498;2022-11-30T00:57:38;102312.31;;;-10.61;73.96
65546;BME280;52177;55.968;37.498;2022-11-30T00:58:08;102309.72;;;-10.63;73.98
65546;BME280;52177;55.968;37.498;2022-11-30T00:58:39;102314.88;;;-10.63;73.99
65546;BME280;52177;55.968;37.498;2022-11-30T00:59:09;102307.97;;;-10.65;73.97
65546;BME280;52177;55.968;37.498;2022-11-30T00:59:39;102305.38;;;-10.67;74.00
65546;BME280;52177;55.968;37.498;2022-11-30T01:00:10;102309.63;;;-10.69;73.74
65546;BME280;52177;55.968;37.498;2022-11-30T01:00:40;102307.91;;;-10.70;73.82
65546;BME280;52177;55.968;37.498;2022-11-30T01:01:10;102315.59;;;-10.71;73.76
65546;BME280;52177;55.968;37.498;2022-11-30T01:01:41;102308.69;;;-10.74;73.60
65546;BME280;52177;55.968;37.498;2022-11-30T01:02:11;102312.09;;;-10.75;73.67
65546;BME280;52177;55.968;37.498;2022-11-30T01:02:41;102303.47;;;-10.77;73.60
65546;BME280;52177;55.968;37.498;2022-11-30T01:03:12;102317.25;;;-10.76;73.69
65546;BME280;52177;55.968;37.498;2022-11-30T01:03:42;102310.38;;;-10.76;73.62
65546;BME280;52177;55.968;37.498;2022-11-30T01:04:12;102307.81;;;-10.76;73.58
65546;BME280;52177;55.968;37.498;2022-11-30T01:04:42;102304.38;;;-10.76;73.67
65546;BME280;52177;55.968;37.498;2022-11-30T01:05:13;102302.63;;;-10.77;73.80
65546;BME280;52177;55.968;37.498;2022-11-30T01:05:43;102304.34;;;-10.78;73.62
65546;BME280;52177;55.968;37.498;2022-11-30T01:06:13;102310.34;;;-10.79;73.60
65546;BME280;52177;55.968;37.498;2022-11-30T01:06:43;102307.78;;;-10.79;73.82
65546;BME280;52177;55.968;37.498;2022-11-30T01:07:14;102303.44;;;-10.80;73.65
65546;BME280;52177;55.968;37.498;2022-11-30T01:07:44;102312.03;;;-10.81;73.74
65546;BME280;52177;55.968;37.498;2022-11-30T01:08:14;102311.16;;;-10.81;73.68
65546;BME280;52177;55.968;37.498;2022-11-30T01:08:44;102308.56;;;-10.83;73.59
65546;BME280;52177;55.968;37.498;2022-11-30T01:09:17;102304.22;;;-10.84;73.62
65546;BME280;52177;55.968;37.498;2022-11-30T01:09:47;102312.00;;;-10.82;73.74
65546;BME280;52177;55.968;37.498;2022-11-30T01:10:17;102312.00;;;-10.82;73.64
65546;BME280;52177;55.968;37.498;2022-11-30T01:10:47;102308.56;;;-10.83;73.54
65546;BME280;52177;55.968;37.498;2022-11-30T01:11:23;102314.56;;;-10.82;73.60
65546;BME280;52177;55.968;37.498;2022-11-30T01:11:53;102308.56;;;-10.83;73.67
65546;BME280;52177;55.968;37.498;2022-11-30T01:12:24;102305.94;;;-10.85;73.68
65546;BME280;52177;55.968;37.498;2022-11-30T01:12:54;102302.50;;;-10.85;73.63
65546;BME280;52177;55.968;37.498;2022-11-30T01:13:24;102304.22;;;-10.86;73.64
65546;BME280;52177;55.968;37.498;2022-11-30T01:13:55;102314.53;;;-10.86;73.64
65546;BME280;52177;55.968;37.498;2022-11-30T01:14:26;102305.06;;;-10.87;73.56
65546;BME280;52177;55.968;37.498;2022-11-30T01:14:56;102305.94;;;-10.86;73.66
65546;BME280;52177;55.968;37.498;2022-11-30T01:15:26;102306.78;;;-10.87;73.73
65546;BME280;52177;55.968;37.498;2022-11-30T01:15:57;102312.78;;;-10.87;73.87
65546;BME280;52177;55.968;37.498;2022-11-30T01:16:28;102309.34;;;-10.87;73.87
65546;BME280;52177;55.968;37.498;2022-11-30T01:16:59;102307.63;;;-10.88;73.94
65546;BME280;52177;55.968;37.498;2022-11-30T01:17:29;102309.34;;;-10.87;73.84
65546;BME280;52177;55.968;37.498;2022-11-30T01:18:00;102306.78;;;-10.87;73.98
65546;BME280;52177;55.968;37.498;2022-11-30T01:18:30;102307.63;;;-10.88;73.85
65546;BME280;52177;55.968;37.498;2022-11-30T01:19:00;102311.06;;;-10.88;73.91
65546;BME280;52177;55.968;37.498;2022-11-30T01:19:30;102307.63;;;-10.87;74.00
65546;BME280;52177;55.968;37.498;2022-11-30T01:20:01;102315.34;;;-10.88;74.05
65546;BME280;52177;55.968;37.498;2022-11-30T01:20:31;102307.63;;;-10.88;74.06
65546;BME280;52177;55.968;37.498;2022-11-30T01:21:04;102305.06;;;-10.88;74.14
65546;BME280;52177;55.968;37.498;2022-11-30T01:21:34;102307.63;;;-10.88;73.92
65546;BME280;52177;55.968;37.498;2022-11-30T01:22:04;102307.63;;;-10.87;73.96
65546;BME280;52177;55.968;37.498;2022-11-30T01:22:35;102305.91;;;-10.88;73.86
65546;BME280;52177;55.968;37.498;2022-11-30T01:23:05;102314.53;;;-10.86;73.91
65546;BME280;52177;55.968;37.498;2022-11-30T01:23:35;102310.22;;;-10.87;73.80
65546;BME280;52177;55.968;37.498;2022-11-30T01:24:06;102310.19;;;-10.88;73.64
65546;BME280;52177;55.968;37.498;2022-11-30T01:24:36;102305.06;;;-10.88;73.71
65546;BME280;52177;55.968;37.498;2022-11-30T01:25:06;102311.03;;;-10.89;73.61
65546;BME280;52177;55.968;37.498;2022-11-30T01:25:37;102305.03;;;-10.90;73.51
65546;BME280;52177;55.968;37.498;2022-11-30T01:26:08;102307.63;;;-10.88;73.51
65546;BME280;52177;55.968;37.498;2022-11-30T01:26:38;102305.03;;;-10.90;73.49
65546;BME280;52177;55.968;37.498;2022-11-30T01:27:08;102311.88;;;-10.90;73.58
65546;BME280;52177;55.968;37.498;2022-11-30T01:27:38;102307.59;;;-10.90;73.54
65546;BME280;52177;55.968;37.498;2022-11-30T01:28:09;102304.13;;;-10.92;73.60
65546;BME280;52177;55.968;37.498;2022-11-30T01:28:39;102308.44;;;-10.91;73.58
65546;BME280;52177;55.968;37.498;2022-11-30T01:29:09;102304.97;;;-10.91;73.54
65546;BME280;52177;55.968;37.498;2022-11-30T01:29:40;102307.56;;;-10.91;73.69
65546;BME280;52177;55.968;37.498;2022-11-30T01:30:13;102302.41;;;-10.91;73.76
65546;BME280;52177;55.968;37.498;2022-11-30T01:30:43;102304.97;;;-10.91;73.62
65546;BME280;52177;55.968;37.498;2022-11-30T01:31:13;102301.59;;;-10.90;73.56
65546;BME280;52177;55.968;37.498;2022-11-30T01:31:44;102302.41;;;-10.93;73.67
65546;BME280;52177;55.968;37.498;2022-11-30T01:32:14;102305.84;;;-10.92;73.61
65546;BME280;52177;55.968;37.498;2022-11-30T01:32:44;102304.09;;;-10.93;73.64
65546;BME280;52177;55.968;37.498;2022-11-30T01:33:14;102307.56;;;-10.93;73.68
65546;BME280;52177;55.968;37.498;2022-11-30T01:33:51;102305.81;;;-10.94;73.54
65546;BME280;52177;55.968;37.498;2022-11-30T01:34:21;102304.91;;;-10.96;73.63
65546;BME280;52177;55.968;37.498;2022-11-30T01:34:52;102298.94;;;-10.95;73.53
65546;BME280;52177;55.968;37.498;2022-11-30T01:35:22;102302.34;;;-10.96;73.74
65546;BME280;52177;55.968;37.498;2022-11-30T01:35:59;102307.47;;;-10.96;73.66
65546;BME280;52177;55.968;37.498;2022-11-30T01:36:29;102305.81;;;-10.95;73.79
65546;BME280;52177;55.968;37.498;2022-11-30T01:37:00;102303.19;;;-10.97;73.80
65546;BME280;52177;55.968;37.498;2022-11-30T01:37:31;102302.34;;;-10.97;73.78
65546;BME280;52177;55.968;37.498;2022-11-30T01:38:01;102301.47;;;-10.98;73.86
65546;BME280;52177;55.968;37.498;2022-11-30T01:38:41;102300.63;;;-10.97;74.04
65546;BME280;52177;55.968;37.498;2022-11-30T01:39:12;102303.22;;;-10.95;74.02
65546;BME280;52177;55.968;37.498;2022-11-30T01:39:42;102308.38;;;-10.95;73.95
65546;BME280;52177;55.968;37.498;2022-11-30T01:40:13;102301.47;;;-10.96;74.02
65546;BME280;52177;55.968;37.498;2022-11-30T01:40:48;102308.38;;;-10.95;74.20
65546;BME280;52177;55.968;37.498;2022-11-30T01:41:22;102300.66;;;-10.95;74.23
65546;BME280;52177;55.968;37.498;2022-11-30T01:41:53;102295.50;;;-10.95;74.23
65546;BME280;52177;55.968;37.498;2022-11-30T01:42:26;102298.06;;;-10.95;74.13
65546;BME280;52177;55.968;37.498;2022-11-30T01:42:56;102298.06;;;-10.95;74.17
65546;BME280;52177;55.968;37.498;2022-11-30T01:45:18;102301.47;;;-10.96;74.41
65546;BME280;52177;55.968;37.498;2022-11-30T01:45:49;102298.06;;;-10.95;74.33
65546;BME280;52177;55.968;37.498;2022-11-30T01:46:57;102303.22;;;-10.95;74.19
65546;BME280;52177;55.968;37.498;2022-11-30T01:47:29;102300.66;;;-10.94;74.28
65546;BME280;52177;55.968;37.498;2022-11-30T01:48:00;102294.63;;;-10.94;74.37
65546;BME280;52177;55.968;37.498;2022-11-30T01:48:30;102297.25;;;-10.93;74.41
65546;BME280;52177;55.968;37.498;2022-11-30T01:49:02;102298.94;;;-10.93;74.25
65546;BME280;52177;55.968;37.498;2022-11-30T01:49:40;102294.69;;;-10.93;74.22
65546;BME280;52177;55.968;37.498;2022-11-30T01:50:14;102304.09;;;-10.93;74.13
65546;BME280;52177;55.968;37.498;2022-11-30T01:50:46;102299.78;;;-10.94;74.07
65546;BME280;52177;55.968;37.498;2022-11-30T01:51:16;102293.78;;;-10.95;74.11
65546;BME280;52177;55.968;37.498;2022-11-30T01:52:48;102293.78;;;-10.95;74.14
65546;BME280;52177;55.968;37.498;2022-11-30T01:53:19;102296.34;;;-10.95;74.24
65546;BME280;52177;55.968;37.498;2022-11-30T01:53:49;102301.50;;;-10.93;74.21
65546;BME280;52177;55.968;37.498;2022-11-30T01:54:21;102300.66;;;-10.94;74.09
65546;BME280;52177;55.968;37.498;2022-11-30T01:54:54;102301.50;;;-10.93;74.24
65546;BME280;52177;55.968;37.498;2022-11-30T01:55:26;102297.22;;;-10.94;74.14
65546;BME280;52177;55.968;37.498;2022-11-30T01:55:58;102295.50;;;-10.94;74.34
65546;BME280;52177;55.968;37.498;2022-11-30T01:56:28;102300.66;;;-10.94;74.23
65546;BME280;52177;55.968;37.498;2022-11-30T01:57:01;102298.94;;;-10.93;74.23
65546;BME280;52177;55.968;37.498;2022-11-30T01:58:10;102291.22;;;-10.93;74.32
65546;BME280;52177;55.968;37.498;2022-11-30T01:58:41;102296.41;;;-10.92;74.24
65546;BME280;52177;55.968;37.498;2022-11-30T01:59:11;102299.84;;;-10.91;74.31
65546;BME280;52177;55.968;37.498;2022-11-30T01:59:42;102292.97;;;-10.92;74.22
65546;BME280;52177;55.968;37.498;2022-11-30T02:00:13;102297.25;;;-10.93;74.33
65546;BME280;52177;55.968;37.498;2022-11-30T02:00:46;102298.13;;;-10.92;74.36
65546;BME280;52177;55.968;37.498;2022-11-30T02:01:17;102292.09;;;-10.93;74.20
65546;BME280;52177;55.968;37.498;2022-11-30T02:01:47;102297.25;;;-10.93;74.16
65546;BME280;52177;55.968;37.498;2022-11-30T02:02:18;102296.41;;;-10.92;nan
65546;BME280;52177;55.968;37.498;2022-11-30T02:03:44;102293.81;;;-10.92;74.21
65546;BME280;52177;55.968;37.498;2022-11-30T02:04:20;102293.78;;;-10.93;74.11
65546;BME280;52177;55.968;37.498;2022-11-30T02:04:52;102291.22;;;-10.95;74.17
65546;BME280;52177;55.968;37.498;2022-11-30T02:05:23;102292.94;;;-10.95;74.18
65546;BME280;52177;55.968;37.498;2022-11-30T02:05:53;102289.44;;;-10.96;74.22
65546;BME280;52177;55.968;37.498;2022-11-30T02:06:24;102298.91;;;-10.96;74.24
65546;BME280;52177;55.968;37.498;2022-11-30T02:06:55;102290.28;;;-10.98;74.19
65546;BME280;52177;55.968;37.498;2022-11-30T02:07:26;102289.41;;;-10.99;74.31
65546;BME280;52177;55.968;37.498;2022-11-30T02:07:56;102280.84;;;-10.99;74.19
65546;BME280;52177;55.968;37.498;2022-11-30T02:08:26;102287.69;;;-11.00;74.22
65546;BME280;52177;55.968;37.498;2022-11-30T02:08:57;102291.09;;;-11.01;74.25
65546;BME280;52177;55.968;37.498;2022-11-30T02:09:28;102291.09;;;-11.01;74.15
65546;BME280;52177;55.968;37.498;2022-11-30T02:09:58;102288.53;;;-11.01;74.24
65546;BME280;52177;55.968;37.498;2022-11-30T02:10:29;102289.38;;;-11.00;74.40
65546;BME280;52177;55.968;37.498;2022-11-30T02:11:02;102293.69;;;-11.01;74.28
65546;BME280;52177;55.968;37.498;2022-11-30T02:11:33;102292.81;;;-11.01;74.22
65546;BME280;52177;55.968;37.498;2022-11-30T02:12:04;102290.25;;;-11.01;74.28
65546;BME280;52177;55.968;37.498;2022-11-30T02:12:38;102292.81;;;-11.01;74.29
65546;BME280;52177;55.968;37.498;2022-11-30T02:14:53;102293.69;;;-11.02;74.01
65546;BME280;52177;55.968;37.498;2022-11-30T02:15:28;102290.19;;;-11.03;73.97
65546;BME280;52177;55.968;37.498;2022-11-30T02:16:46;102287.63;;;-11.03;74.10
65546;BME280;52177;55.968;37.498;2022-11-30T02:17:20;102293.69;;;-11.02;74.07
65546;BME280;52177;55.968;37.498;2022-11-30T02:18:04;102291.09;;;-11.02;74.06
65546;BME280;52177;55.968;37.498;2022-11-30T02:18:42;102291.09;;;-11.02;74.09
65546;BME280;52177;55.968;37.498;2022-11-30T02:21:05;102289.31;;;-11.05;74.02
65546;BME280;52177;55.968;37.498;2022-11-30T02:27:07;102288.31;;;-11.15;73.76
65546;BME280;52177;55.968;37.498;2022-11-30T02:28:33;102284.00;;;-11.16;73.78
65546;BME280;52177;55.968;37.498;2022-11-30T02:29:10;102283.16;;;-11.16;73.75
65546;BME280;52177;55.968;37.498;2022-11-30T02:29:43;102290.88;;;-11.16;73.69
65546;BME280;52177;55.968;37.498;2022-11-30T02:30:20;102290.84;;;-11.18;73.75
65546;BME280;52177;55.968;37.498;2022-11-30T02:30:51;102283.97;;;-11.19;73.74
65546;BME280;52177;55.968;37.498;2022-11-30T02:31:25;102289.97;;;-11.18;73.81
65546;BME280;52177;55.968;37.498;2022-11-30T02:33:17;102289.91;;;-11.23;73.57
65546;BME280;52177;55.968;37.498;2022-11-30T02:33:48;102289.91;;;-11.23;73.73
65546;BME280;52177;55.968;37.498;2022-11-30T02:34:20;102290.72;;;-11.24;73.64
65546;BME280;52177;55.968;37.498;2022-11-30T02:34:51;102289.00;;;-11.25;73.52
65546;BME280;52177;55.968;37.498;2022-11-30T02:35:30;102288.16;;;-11.26;73.63
65546;BME280;52177;55.968;37.498;2022-11-30T02:36:02;102293.28;;;-11.26;73.64
65546;BME280;52177;55.968;37.498;2022-11-30T02:36:34;102292.41;;;-11.26;73.67
65546;BME280;52177;55.968;37.498;2022-11-30T02:37:05;102293.25;;;-11.27;73.62
65546;BME280;52177;55.968;37.498;2022-11-30T02:37:36;102293.25;;;-11.27;73.57
65546;BME280;52177;55.968;37.498;2022-11-30T02:38:07;102294.13;;;-11.28;73.66
65546;BME280;52177;55.968;37.498;2022-11-30T02:38:38;102293.28;;;-11.26;73.69
65546;BME280;52177;55.968;37.498;2022-11-30T02:39:09;102292.41;;;-11.26;73.87
65546;BME280;52177;55.968;37.498;2022-11-30T02:39:39;102290.69;;;-11.27;73.76
65546;BME280;52177;55.968;37.498;2022-11-30T02:40:11;102294.97;;;-11.28;73.65
65546;BME280;52177;55.968;37.498;2022-11-30T02:40:42;102283.81;;;-11.28;73.64
65546;BME280;52177;55.968;37.498;2022-11-30T02:41:13;102289.81;;;-11.28;73.76
65546;BME280;52177;55.968;37.498;2022-11-30T02:41:43;102286.38;;;-11.28;73.57
65546;BME280;52177;55.968;37.498;2022-11-30T02:42:13;102289.81;;;-11.28;73.59
65546;BME280;52177;55.968;37.498;2022-11-30T02:42:44;102284.69;;;-11.28;73.66
65546;BME280;52177;55.968;37.498;2022-11-30T02:43:15;102287.25;;;-11.28;73.71
65546;BME280;52177;55.968;37.498;2022-11-30T02:43:46;102288.97;;;-11.27;73.79
65546;BME280;52177;55.968;37.498;2022-11-30T02:44:17;102293.25;;;-11.27;73.70
65546;BME280;52177;55.968;37.498;2022-11-30T02:44:49;102291.53;;;-11.28;73.79
65546;BME280;52177;55.968;37.498;2022-11-30T02:45:22;102282.06;;;-11.29;73.74
65546;BME280;52177;55.968;37.498;2022-11-30T02:46:04;102283.78;;;-11.30;73.79
65546;BME280;52177;55.968;37.498;2022-11-30T02:47:20;102282.91;;;-11.30;73.98
65546;BME280;52177;55.968;37.498;2022-11-30T02:47:33;102284.63;;;-11.31;73.90
65546;BME280;52177;55.968;37.498;2022-11-30T02:48:47;102276.88;;;-11.32;73.88
65546;BME280;52177;55.968;37.498;2022-11-30T02:50:12;102278.59;;;-11.33;73.88
65546;BME280;52177;55.968;37.498;2022-11-30T02:50:51;102279.41;;;-11.34;73.69
65546;BME280;52177;55.968;37.498;2022-11-30T02:51:23;102278.50;;;-11.36;73.80
65546;BME280;52177;55.968;37.498;2022-11-30T02:51:55;102275.94;;;-11.36;73.74
65546;BME280;52177;55.968;37.498;2022-11-30T02:52:27;102277.66;;;-11.36;73.76
65546;BME280;52177;55.968;37.498;2022-11-30T02:52:59;102276.84;;;-11.35;73.83
65546;BME280;52177;55.968;37.498;2022-11-30T02:53:29;102285.41;;;-11.33;73.99
65546;BME280;52177;55.968;37.498;2022-11-30T02:54:00;102282.00;;;-11.34;73.94
65546;BME280;52177;55.968;37.498;2022-11-30T02:54:30;102279.41;;;-11.35;73.71
65546;BME280;52177;55.968;37.498;2022-11-30T02:55:01;102277.69;;;-11.35;73.72
65546;BME280;52177;55.968;37.498;2022-11-30T02:55:32;102281.13;;;-11.34;73.74
65546;BME280;52177;55.968;37.498;2022-11-30T02:56:02;102275.94;;;-11.36;73.52
65546;BME280;52177;55.968;37.498;2022-11-30T02:56:32;102288.81;;;-11.36;73.52
65546;BME280;52177;55.968;37.498;2022-11-30T02:57:03;102278.50;;;-11.37;73.44
65546;BME280;52177;55.968;37.498;2022-11-30T02:57:33;102277.63;;;-11.39;73.63